LED weather

Pulkovo Airport
St. Petersburg, Saint Petersburg (city), Russia

Public forecast

Using degrees Celsius for public forecast. Weather courtesy of forecast.io.

Current aviation weather report (METAR) for Pulkovo Airport

Retrieved 2019/10/16 18:30 UTC (0 seconds ago):

ULLI 161830Z 07002MPS 040V110 9999 OVC027 06/03 Q1010 R10L/090060 NOSIG

Aviation forecast (TAF) for Pulkovo Airport

Retrieved 2019/10/16 18:21 UTC (6 minutes ago):

TAF ULLI 161655Z 1618/1718 06003MPS 6000 BKN011 BKN015 TEMPO 1618/1620 08003MPS 4000 -SHRA BKN011 BKN015CB TEMPO 1620/1718 3100 -SHRA BR BKN006 BKN015CB